createdAt,value
2018-08-25T00:02:13.809Z,100578.80
2018-08-25T00:04:41.409Z,100572.14
2018-08-25T00:07:08.979Z,100573.69
2018-08-25T00:09:37.448Z,100571.11
2018-08-25T00:12:05.489Z,100571.95
2018-08-25T00:14:33.103Z,100557.17
2018-08-25T00:17:00.560Z,100550.41
2018-08-25T00:19:28.395Z,100552.33
2018-08-25T00:21:55.874Z,100551.25
2018-08-25T00:24:23.377Z,100542.11
2018-08-25T00:26:50.951Z,100534.77
2018-08-25T00:29:18.460Z,100529.36
2018-08-25T00:31:46.520Z,100525.02
2018-08-25T00:34:13.961Z,100525.16
2018-08-25T00:36:42.097Z,100516.92
2018-08-25T00:39:09.525Z,100524.98
2018-08-25T00:41:37.651Z,100526.98
2018-08-25T00:44:05.217Z,100521.22
2018-08-25T00:46:32.674Z,100531.68
2018-08-25T00:49:00.234Z,100536.69
2018-08-25T00:51:27.661Z,100541.83
2018-08-25T00:53:55.257Z,100552.34
2018-08-25T00:56:22.695Z,100545.57
2018-08-25T00:58:50.133Z,100550.14
2018-08-25T01:01:17.701Z,100545.05
2018-08-25T01:03:45.918Z,100538.39
2018-08-25T01:06:13.987Z,100527.49
2018-08-25T01:08:41.499Z,100526.01
2018-08-25T01:11:09.090Z,100527.65
2018-08-25T01:13:36.590Z,100530.20
2018-08-25T01:16:04.210Z,100537.45
2018-08-25T01:18:31.748Z,100534.05
2018-08-25T01:20:59.365Z,100529.17
2018-08-25T01:23:27.209Z,100529.90
2018-08-25T01:25:54.652Z,100517.92
2018-08-25T01:28:22.270Z,100516.12
2018-08-25T01:30:49.957Z,100496.70
2018-08-25T01:33:17.484Z,100486.97
2018-08-25T01:35:44.924Z,100489.19
2018-08-25T01:38:12.409Z,100495.88
2018-08-25T01:40:39.854Z,100498.86
2018-08-25T01:43:07.353Z,100488.84
2018-08-25T01:45:34.824Z,100491.86
2018-08-25T01:48:02.389Z,100498.41
2018-08-25T01:50:29.877Z,100495.19
2018-08-25T01:52:58.186Z,100488.11
2018-08-25T01:55:25.841Z,100496.95
2018-08-25T01:57:53.300Z,100502.11
2018-08-25T02:00:20.849Z,100501.17
2018-08-25T02:02:48.365Z,100505.27
2018-08-25T02:05:15.743Z,100513.70
2018-08-25T02:07:43.925Z,100500.50
2018-08-25T02:10:11.373Z,100475.86
2018-08-25T02:12:39.053Z,100485.09
2018-08-25T02:15:06.488Z,100478.88
2018-08-25T02:17:34.286Z,100474.61
2018-08-25T02:20:01.754Z,100465.19
2018-08-25T02:22:29.209Z,100471.45
2018-08-25T02:24:56.655Z,100472.75
2018-08-25T02:27:24.105Z,100471.96
2018-08-25T02:29:51.572Z,100463.80
2018-08-25T02:32:19.026Z,100471.41
2018-08-25T02:34:46.459Z,100471.23
2018-08-25T02:37:13.904Z,100468.70
2018-08-25T02:39:41.857Z,100456.52
2018-08-25T02:42:09.440Z,100460.08
2018-08-25T02:44:37.082Z,100466.45
2018-08-25T02:47:04.966Z,100462.73
2018-08-25T02:49:32.486Z,100452.59
2018-08-25T02:52:00.001Z,100449.52
2018-08-25T02:54:27.429Z,100447.19
2018-08-25T02:56:55.868Z,100450.22
2018-08-25T02:59:23.352Z,100450.78
2018-08-25T03:01:50.808Z,100455.00
2018-08-25T03:04:18.302Z,100459.17
2018-08-25T03:06:45.731Z,100469.44
2018-08-25T03:09:13.224Z,100450.32
2018-08-25T03:11:40.663Z,100466.52
2018-08-25T03:14:08.276Z,100454.86
2018-08-25T03:16:35.814Z,100441.85
2018-08-25T03:19:03.354Z,100431.23
2018-08-25T03:21:30.809Z,100433.41
2018-08-25T03:23:58.568Z,100439.47
2018-08-25T03:26:26.049Z,100438.06
2018-08-25T03:28:53.509Z,100449.44
2018-08-25T03:31:21.400Z,100453.97
2018-08-25T03:33:48.855Z,100457.19
2018-08-25T03:36:16.378Z,100453.16
2018-08-25T03:38:43.812Z,100459.39
2018-08-25T03:41:11.311Z,100465.97
2018-08-25T03:43:38.879Z,100472.22
2018-08-25T03:46:06.379Z,100469.77
2018-08-25T03:48:33.913Z,100468.93
2018-08-25T03:51:01.338Z,100480.66
2018-08-25T03:53:28.772Z,100483.56
2018-08-25T03:55:57.080Z,100478.98
2018-08-25T03:58:24.503Z,100489.91
2018-08-25T04:00:51.764Z,100501.44
2018-08-25T04:03:19.582Z,100497.34
2018-08-25T04:05:46.848Z,100511.43
2018-08-25T04:08:14.073Z,100512.79
2018-08-25T04:10:41.493Z,100522.79
2018-08-25T04:13:08.739Z,100528.37
2018-08-25T04:15:36.090Z,100517.53
2018-08-25T04:18:03.322Z,100519.88
2018-08-25T04:20:30.504Z,100524.80
2018-08-25T04:22:57.749Z,100531.78
2018-08-25T04:25:25.129Z,100537.32
2018-08-25T04:27:52.390Z,100529.59
2018-08-25T04:30:19.776Z,100537.58
2018-08-25T04:32:47.073Z,100539.28
2018-08-25T04:35:14.294Z,100536.22
2018-08-25T04:37:41.541Z,100545.11
2018-08-25T04:40:08.785Z,100544.11
2018-08-25T04:42:36.097Z,100542.11
2018-08-25T04:45:03.462Z,100537.24
2018-08-25T04:47:30.786Z,100532.30
2018-08-25T04:49:58.425Z,100529.14
2018-08-25T04:52:25.751Z,100536.08
2018-08-25T04:54:53.055Z,100551.86
2018-08-25T04:57:20.358Z,100564.45
2018-08-25T04:59:47.627Z,100563.79
2018-08-25T05:02:14.905Z,100581.95
2018-08-25T05:04:42.089Z,100554.81
2018-08-25T05:07:09.444Z,100573.21
2018-08-25T05:09:36.672Z,100564.33
2018-08-25T05:12:04.038Z,100559.53
2018-08-25T05:14:31.274Z,100561.49
2018-08-25T05:16:58.847Z,100574.23
2018-08-25T05:19:26.145Z,100568.50
2018-08-25T05:21:53.619Z,100582.70
2018-08-25T05:24:20.897Z,100580.03
2018-08-25T05:26:48.183Z,100579.31
2018-08-25T05:29:15.565Z,100587.61
2018-08-25T05:31:42.815Z,100585.02
2018-08-25T05:34:10.100Z,100575.02
2018-08-25T05:36:37.506Z,100569.23
2018-08-25T05:39:06.942Z,100598.08
2018-08-25T05:41:34.157Z,100593.78
2018-08-25T05:44:01.523Z,100592.57
2018-08-25T05:46:28.725Z,100582.11
2018-08-25T05:48:55.974Z,100586.77
2018-08-25T05:51:23.222Z,100585.73
2018-08-25T05:53:50.420Z,100578.50
2018-08-25T05:56:17.964Z,100589.08
2018-08-25T05:58:45.602Z,100588.55
2018-08-25T06:01:13.060Z,100589.22
2018-08-25T06:03:40.280Z,100590.73
2018-08-25T06:06:07.561Z,100596.25
2018-08-25T06:08:35.297Z,100587.27
2018-08-25T06:11:02.610Z,100600.72
2018-08-25T06:13:30.023Z,100605.97
2018-08-25T06:15:57.758Z,100612.00
2018-08-25T06:18:25.066Z,100614.44
2018-08-25T06:20:52.317Z,100611.69
2018-08-25T06:23:20.189Z,100603.98
2018-08-25T06:25:47.439Z,100604.70
2018-08-25T06:28:14.752Z,100609.19
2018-08-25T06:30:42.105Z,100607.13
2018-08-25T06:33:09.385Z,100607.59
2018-08-25T06:35:36.669Z,100603.88
2018-08-25T06:38:05.034Z,100603.22
2018-08-25T06:40:32.304Z,100612.47
2018-08-25T06:42:59.603Z,100611.11
2018-08-25T06:45:27.046Z,100614.81
2018-08-25T06:47:54.373Z,100618.07
2018-08-25T06:50:21.729Z,100613.77
2018-08-25T06:52:49.190Z,100617.31
2018-08-25T06:55:16.796Z,100612.94
2018-08-25T06:57:44.097Z,100618.33
2018-08-25T07:00:11.342Z,100612.54
2018-08-25T07:02:38.641Z,100619.09
2018-08-25T07:05:05.933Z,100621.43
2018-08-25T07:07:33.350Z,100613.50
2018-08-25T07:10:00.611Z,100618.59
2018-08-25T07:12:27.967Z,100622.19
2018-08-25T07:14:55.358Z,100617.19
2018-08-25T07:17:22.780Z,100623.65
2018-08-25T07:19:50.182Z,100625.20
2018-08-25T07:22:17.672Z,100626.26
2018-08-25T07:24:45.015Z,100631.94
2018-08-25T07:27:12.268Z,100633.44
2018-08-25T07:29:39.781Z,100622.09
2018-08-25T07:32:07.178Z,100621.62
2018-08-25T07:34:34.703Z,100644.49
2018-08-25T07:37:02.077Z,100646.06
2018-08-25T07:39:29.579Z,100654.80
2018-08-25T07:41:56.905Z,100661.67
2018-08-25T07:44:24.488Z,100654.91
2018-08-25T07:46:51.891Z,100657.09
2018-08-25T07:49:19.454Z,100662.89
2018-08-25T07:51:46.968Z,100662.21
2018-08-25T07:54:18.273Z,100671.83
2018-08-25T07:56:46.056Z,100679.48
2018-08-25T07:59:13.443Z,100674.73
2018-08-25T08:01:40.680Z,100687.52
2018-08-25T08:04:08.674Z,100683.34
2018-08-25T08:06:35.899Z,100698.80
2018-08-25T08:09:05.348Z,100693.09
2018-08-25T08:11:32.637Z,100696.23
2018-08-25T08:14:00.444Z,100699.75
2018-08-25T08:16:28.217Z,100690.93
2018-08-25T08:18:55.655Z,100693.00
2018-08-25T08:21:22.929Z,100697.48
2018-08-25T08:23:50.337Z,100727.02
2018-08-25T08:26:17.587Z,100724.38
2018-08-25T08:28:45.125Z,100724.80
2018-08-25T08:31:13.072Z,100727.00
2018-08-25T08:33:41.654Z,100732.55
2018-08-25T08:36:10.061Z,100738.69
2018-08-25T08:38:38.396Z,100742.89
2018-08-25T08:41:06.677Z,100747.31
2018-08-25T08:43:33.958Z,100742.22
2018-08-25T08:46:01.651Z,100745.36
2018-08-25T08:48:29.078Z,100742.58
2018-08-25T08:51:00.864Z,100746.70
2018-08-25T08:53:28.709Z,100747.45
2018-08-25T08:55:56.196Z,100753.06
2018-08-25T08:58:23.596Z,100755.76
2018-08-25T09:00:50.929Z,100758.77
2018-08-25T09:03:18.184Z,100777.63
2018-08-25T09:05:45.494Z,100771.29
2018-08-25T09:08:12.789Z,100778.67
2018-08-25T09:10:40.075Z,100780.71
2018-08-25T09:13:07.327Z,100771.73
2018-08-25T09:15:34.610Z,100783.17
2018-08-25T09:18:01.833Z,100779.75
2018-08-25T09:20:30.006Z,100779.73
2018-08-25T09:22:57.289Z,100777.86
2018-08-25T09:25:24.540Z,100796.48
2018-08-25T09:27:52.134Z,100795.32
2018-08-25T09:30:19.383Z,100791.50
2018-08-25T09:32:46.735Z,100794.06
2018-08-25T09:35:14.489Z,100790.15
2018-08-25T09:37:41.944Z,100790.53
2018-08-25T09:40:10.821Z,100776.59
2018-08-25T09:42:38.754Z,100774.73
2018-08-25T09:45:06.249Z,100772.81
2018-08-25T09:47:33.913Z,100784.00
2018-08-25T09:50:01.640Z,100778.23
2018-08-25T09:52:30.742Z,100783.78
2018-08-25T09:54:58.054Z,100783.72
2018-08-25T09:57:25.354Z,100791.28
2018-08-25T09:59:52.612Z,100799.14
2018-08-25T10:02:19.951Z,100809.07
2018-08-25T10:04:47.223Z,100788.18
2018-08-25T10:07:15.048Z,100805.36
2018-08-25T10:09:42.391Z,100801.29
2018-08-25T10:12:09.650Z,100800.61
2018-08-25T10:14:36.910Z,100806.77
2018-08-25T10:17:04.459Z,100803.39
2018-08-25T10:19:31.788Z,100817.93
2018-08-25T10:21:59.266Z,100830.59
2018-08-25T10:24:27.615Z,100832.84
2018-08-25T10:26:54.969Z,100845.38
2018-08-25T10:29:22.950Z,100848.23
2018-08-25T10:31:50.528Z,100860.51
2018-08-25T10:34:17.983Z,100852.92
2018-08-25T10:36:45.366Z,100851.83
2018-08-25T10:39:13.436Z,100858.36
2018-08-25T10:41:41.286Z,100860.77
2018-08-25T10:44:08.776Z,100856.58
2018-08-25T10:46:36.832Z,100865.63
2018-08-25T10:49:05.087Z,100864.92
2018-08-25T10:51:32.437Z,100867.25
2018-08-25T10:53:59.773Z,100867.69
2018-08-25T10:56:27.221Z,100869.23
2018-08-25T10:58:54.599Z,100875.02
2018-08-25T11:01:21.966Z,100874.58
2018-08-25T11:03:49.254Z,100870.97
2018-08-25T11:06:16.549Z,100879.39
2018-08-25T11:08:44.589Z,100873.86
2018-08-25T11:11:12.101Z,100889.78
2018-08-25T11:13:39.997Z,100895.25
2018-08-25T11:16:07.235Z,100897.78
2018-08-25T11:18:34.611Z,100897.64
2018-08-25T11:21:02.099Z,100896.50
2018-08-25T11:23:29.515Z,100893.16
2018-08-25T11:25:56.972Z,100905.55
2018-08-25T11:28:24.333Z,100896.33
2018-08-25T11:30:51.617Z,100911.45
2018-08-25T11:33:18.879Z,100903.73
2018-08-25T11:35:46.206Z,100906.77
2018-08-25T11:38:13.551Z,100897.83
2018-08-25T11:40:40.843Z,100906.71
2018-08-25T11:43:08.109Z,100904.59
2018-08-25T11:45:36.325Z,100896.41
2018-08-25T11:48:03.629Z,100902.61
2018-08-25T11:50:31.194Z,100909.51
2018-08-25T11:52:58.666Z,100903.82
2018-08-25T11:55:26.128Z,100911.25
2018-08-25T11:57:53.450Z,100907.69
2018-08-25T12:00:20.696Z,100908.22
2018-08-25T12:02:48.144Z,100903.11
2018-08-25T12:05:15.477Z,100909.87
2018-08-25T12:07:42.829Z,100917.02
2018-08-25T12:10:10.757Z,100943.27
2018-08-25T12:12:38.216Z,100953.81
2018-08-25T12:15:06.432Z,100944.23
2018-08-25T12:17:33.846Z,100944.44
2018-08-25T12:20:01.509Z,100945.11
2018-08-25T12:22:29.019Z,100938.70
2018-08-25T12:24:56.521Z,100943.48
2018-08-25T12:27:23.812Z,100943.40
2018-08-25T12:29:51.238Z,100944.96
2018-08-25T12:32:18.585Z,100946.66
2018-08-25T12:34:45.993Z,100942.92
2018-08-25T12:37:13.566Z,100948.87
2018-08-25T12:39:41.044Z,100945.37
2018-08-25T12:42:09.315Z,100949.82
2018-08-25T12:44:36.912Z,100954.83
2018-08-25T12:47:04.246Z,100954.96
2018-08-25T12:49:32.388Z,100961.59
2018-08-25T12:52:00.406Z,100967.95
2018-08-25T12:54:28.246Z,100973.73
2018-08-25T12:56:55.696Z,100976.36
2018-08-25T12:59:25.789Z,100978.66
2018-08-25T13:01:53.997Z,100985.33
2018-08-25T13:04:21.952Z,100981.67
2018-08-25T13:06:49.524Z,100977.94
2018-08-25T13:09:17.048Z,100972.56
2018-08-25T13:11:45.745Z,100975.83
2018-08-25T13:14:13.388Z,100982.43
2018-08-25T13:16:41.144Z,100977.98
2018-08-25T13:19:08.587Z,100974.11
2018-08-25T13:21:36.636Z,100969.85
2018-08-25T13:24:04.369Z,100972.02
2018-08-25T13:26:32.154Z,100982.64
2018-08-25T13:28:59.521Z,100983.06
2018-08-25T13:31:26.953Z,100983.42
2018-08-25T13:33:54.312Z,100990.30
2018-08-25T13:36:23.056Z,100989.90
2018-08-25T13:38:50.390Z,101003.98
2018-08-25T13:41:17.916Z,101004.05
2018-08-25T13:43:45.821Z,100991.78
2018-08-25T13:46:14.095Z,101012.73
2018-08-25T13:48:42.215Z,101006.00
2018-08-25T13:51:09.854Z,101015.00
2018-08-25T13:53:37.431Z,101009.79
2018-08-25T13:56:05.245Z,101015.02
2018-08-25T13:58:32.961Z,101009.05
2018-08-25T14:01:00.214Z,101013.80
2018-08-25T14:03:28.414Z,101016.78
2018-08-25T14:05:55.754Z,101030.70
2018-08-25T14:08:23.469Z,101031.38
2018-08-25T14:10:50.794Z,101020.96
2018-08-25T14:13:18.095Z,101026.78
2018-08-25T14:15:46.975Z,101037.31
2018-08-25T14:18:15.213Z,101043.98
2018-08-25T14:20:42.798Z,101050.47
2018-08-25T14:23:10.402Z,101047.48
2018-08-25T14:25:37.732Z,101052.30
2018-08-25T14:28:05.706Z,101051.30
2018-08-25T14:30:33.004Z,101048.80
2018-08-25T14:33:01.285Z,101050.19
2018-08-25T14:35:28.611Z,101056.47
2018-08-25T14:37:56.442Z,101049.00
2018-08-25T14:40:24.003Z,101046.53
2018-08-25T14:42:51.929Z,101053.91
2018-08-25T14:45:20.385Z,101051.95
2018-08-25T14:47:47.944Z,101044.49
2018-08-25T14:50:15.832Z,101058.02
2018-08-25T14:52:43.424Z,101057.70
2018-08-25T14:55:11.315Z,101052.30
2018-08-25T14:57:38.845Z,101060.06
2018-08-25T15:00:07.174Z,101058.92
2018-08-25T15:02:34.885Z,101063.10
2018-08-25T15:05:02.248Z,101063.00
2018-08-25T15:07:32.539Z,101073.97
2018-08-25T15:10:01.456Z,101074.25
2018-08-25T15:12:28.837Z,101074.11
2018-08-25T15:14:56.322Z,101072.42
2018-08-25T15:17:24.471Z,101065.00
2018-08-25T15:19:51.883Z,101062.73
2018-08-25T15:22:19.210Z,101059.41
2018-08-25T15:24:46.519Z,101061.95
2018-08-25T15:27:13.960Z,101062.88
2018-08-25T15:29:42.931Z,101065.69
2018-08-25T15:32:12.003Z,101064.97
2018-08-25T15:34:40.895Z,101066.55
2018-08-25T15:37:08.193Z,101064.33
2018-08-25T15:39:35.942Z,101068.67
2018-08-25T15:42:04.290Z,101074.70
2018-08-25T15:44:31.595Z,101074.61
2018-08-25T15:46:59.057Z,101074.08
2018-08-25T15:49:26.354Z,101079.39
2018-08-25T15:51:53.808Z,101079.19
2018-08-25T15:54:21.129Z,101084.63
2018-08-25T15:56:49.135Z,101091.48
2018-08-25T15:59:16.713Z,101084.79
2018-08-25T16:01:45.986Z,101091.97
2018-08-25T16:04:13.558Z,101086.38
2018-08-25T16:06:41.497Z,101083.86
2018-08-25T16:09:10.110Z,101102.32
2018-08-25T16:11:38.731Z,101092.73
2018-08-25T16:14:06.273Z,101097.61
2018-08-25T16:16:34.016Z,101094.63
2018-08-25T16:19:02.141Z,101088.45
2018-08-25T16:21:30.089Z,101096.48
2018-08-25T16:23:58.571Z,101100.86
2018-08-25T16:26:31.390Z,101095.14
2018-08-25T16:28:58.843Z,101097.31
2018-08-25T16:31:26.631Z,101101.27
2018-08-25T16:33:54.447Z,101111.22
2018-08-25T16:36:22.564Z,101106.28
2018-08-25T16:38:50.170Z,101102.33
2018-08-25T16:41:18.516Z,101110.42
2018-08-25T16:43:47.480Z,101106.91
2018-08-25T16:46:15.594Z,101103.38
2018-08-25T16:48:44.599Z,101112.00
2018-08-25T16:51:12.241Z,101104.41
2018-08-25T16:53:39.807Z,101107.08
2018-08-25T16:56:07.901Z,101108.37
2018-08-25T16:58:35.651Z,101115.63
2018-08-25T17:01:03.256Z,101104.89
2018-08-25T17:03:31.406Z,101109.84
2018-08-25T17:05:59.059Z,101103.94
2018-08-25T17:08:26.873Z,101112.11
2018-08-25T17:10:54.785Z,101112.98
2018-08-25T17:13:22.985Z,101111.30
2018-08-25T17:15:50.797Z,101119.85
2018-08-25T17:18:18.844Z,101108.34
2018-08-25T17:20:46.722Z,101115.20
2018-08-25T17:23:14.443Z,101122.95
2018-08-25T17:25:42.224Z,101121.77
2018-08-25T17:28:09.691Z,101118.87
2018-08-25T17:30:37.423Z,101115.34
2018-08-25T17:33:05.056Z,101117.98
2018-08-25T17:35:32.281Z,101116.62
2018-08-25T17:38:00.062Z,101116.58
2018-08-25T17:40:27.416Z,101121.47
2018-08-25T17:42:54.743Z,101127.88
2018-08-25T17:45:22.338Z,101122.63
2018-08-25T17:47:50.042Z,101125.11
2018-08-25T17:50:19.027Z,101130.83
2018-08-25T17:52:46.395Z,101136.88
2018-08-25T17:55:14.654Z,101129.92
2018-08-25T17:57:42.604Z,101137.27
2018-08-25T18:00:09.845Z,101144.09
2018-08-25T18:02:37.413Z,101138.74
2018-08-25T18:05:04.787Z,101139.52
2018-08-25T18:07:32.628Z,101131.05
2018-08-25T18:10:00.204Z,101143.19
2018-08-25T18:12:27.620Z,101145.30
2018-08-25T18:14:54.894Z,101152.19
2018-08-25T18:17:23.658Z,101158.38
2018-08-25T18:19:52.496Z,101164.32
2018-08-25T18:22:20.326Z,101167.24
2018-08-25T18:24:47.909Z,101166.67
2018-08-25T18:27:15.782Z,101172.00
2018-08-25T18:29:43.590Z,101175.98
2018-08-25T18:32:11.799Z,101184.91
2018-08-25T18:34:39.443Z,101196.91
2018-08-25T18:37:06.851Z,101197.46
2018-08-25T18:39:35.174Z,101183.82
2018-08-25T18:42:03.105Z,101199.73
2018-08-25T18:44:30.719Z,101203.77
2018-08-25T18:46:58.932Z,101193.73
2018-08-25T18:49:26.799Z,101204.16
2018-08-25T18:51:54.421Z,101211.09
2018-08-25T18:54:22.118Z,101214.67
2018-08-25T18:56:49.850Z,101211.94
2018-08-25T18:59:17.676Z,101207.09
2018-08-25T19:01:45.722Z,101210.91
2018-08-25T19:04:15.277Z,101215.94
2018-08-25T19:06:43.653Z,101214.02
2018-08-25T19:09:12.147Z,101215.57
2018-08-25T19:11:40.155Z,101219.45
2018-08-25T19:14:08.545Z,101218.53
2018-08-25T19:16:38.178Z,101222.60
2018-08-25T19:19:07.308Z,101221.11
2018-08-25T19:21:35.233Z,101226.56
2018-08-25T19:24:03.512Z,101237.01
2018-08-25T19:26:31.575Z,101236.45
2018-08-25T19:28:59.475Z,101236.20
2018-08-25T19:31:27.231Z,101231.76
2018-08-25T19:33:57.193Z,101232.53
2018-08-25T19:36:25.876Z,101233.55
2018-08-25T19:38:53.879Z,101246.73
2018-08-25T19:41:21.933Z,101246.05
2018-08-25T19:43:52.188Z,101246.27
2018-08-25T19:46:20.164Z,101251.58
2018-08-25T19:48:48.433Z,101249.70
2018-08-25T19:51:16.528Z,101248.38
2018-08-25T19:53:44.587Z,101251.91
2018-08-25T19:56:12.213Z,101253.09
2018-08-25T19:58:40.232Z,101247.45
2018-08-25T20:01:08.163Z,101257.45
2018-08-25T20:03:36.944Z,101252.13
2018-08-25T20:06:04.354Z,101249.62
2018-08-25T20:08:32.256Z,101260.03
2018-08-25T20:11:00.354Z,101262.59
2018-08-25T20:13:28.380Z,101267.30
2018-08-25T20:15:56.516Z,101267.70
2018-08-25T20:18:24.390Z,101266.20
